createdAt,value
2023-03-26T00:01:02.011Z,0.90
2023-03-26T00:03:29.959Z,1.20
2023-03-26T00:06:27.632Z,1.42
2023-03-26T00:08:55.913Z,0.85
2023-03-26T00:11:24.275Z,1.48
2023-03-26T00:13:53.666Z,1.02
2023-03-26T00:16:20.708Z,1.10
2023-03-26T00:18:48.852Z,1.10
2023-03-26T00:21:17.967Z,1.02
2023-03-26T00:23:44.842Z,1.80
2023-03-26T00:26:11.863Z,1.90
2023-03-26T00:28:41.385Z,2.05
2023-03-26T00:31:11.275Z,1.95
2023-03-26T00:33:40.458Z,1.88
2023-03-26T00:36:17.269Z,1.90
2023-03-26T00:38:45.001Z,1.70
2023-03-26T00:41:22.881Z,2.10
2023-03-26T00:43:51.940Z,1.15
2023-03-26T00:46:19.457Z,1.77
2023-03-26T00:48:46.973Z,1.90
2023-03-26T00:51:16.239Z,1.73
2023-03-26T00:53:45.275Z,2.42
2023-03-26T00:56:12.729Z,1.45
2023-03-26T00:58:39.479Z,1.02
2023-03-26T01:01:10.074Z,1.02
2023-03-26T01:03:42.725Z,0.90
2023-03-26T01:06:19.639Z,1.17
2023-03-26T01:08:49.823Z,0.80
2023-03-26T01:11:16.416Z,0.88
2023-03-26T01:13:47.604Z,1.25
2023-03-26T01:16:23.514Z,1.40
2023-03-26T01:18:52.605Z,0.95
2023-03-26T01:21:22.759Z,0.80
2023-03-26T01:23:57.181Z,1.00
2023-03-26T01:27:01.638Z,0.75
2023-03-26T01:29:41.749Z,2.03
2023-03-26T01:32:09.536Z,1.10
2023-03-26T01:34:42.746Z,1.10
2023-03-26T01:37:15.132Z,1.10
2023-03-26T01:39:49.531Z,1.10
2023-03-26T01:42:24.153Z,0.82
2023-03-26T01:44:56.847Z,0.93
2023-03-26T01:47:23.842Z,0.90
2023-03-26T01:49:50.679Z,1.38
2023-03-26T01:52:21.267Z,1.10
2023-03-26T01:54:48.300Z,1.17
2023-03-26T01:57:17.937Z,1.20
2023-03-26T01:59:47.659Z,1.15
2023-03-26T02:02:22.529Z,1.10
2023-03-26T02:05:11.137Z,1.38
2023-03-26T02:08:11.800Z,1.52
2023-03-26T02:10:44.302Z,1.50
2023-03-26T02:13:12.471Z,1.20
2023-03-26T02:15:55.787Z,1.42
2023-03-26T02:18:24.280Z,1.17
2023-03-26T02:20:53.032Z,1.35
2023-03-26T02:23:22.728Z,1.17
2023-03-26T02:25:49.387Z,1.20
2023-03-26T02:28:16.984Z,1.00
2023-03-26T02:30:45.799Z,1.27
2023-03-26T02:33:15.265Z,1.15
2023-03-26T02:35:45.819Z,0.90
2023-03-26T02:38:14.477Z,1.70
2023-03-26T02:40:41.645Z,1.13
2023-03-26T02:43:08.621Z,1.38
2023-03-26T02:45:35.424Z,1.42
2023-03-26T02:48:02.298Z,1.17
2023-03-26T02:50:32.454Z,1.58
2023-03-26T02:52:59.121Z,1.08
2023-03-26T02:55:26.106Z,1.48
2023-03-26T02:57:52.774Z,1.20
2023-03-26T03:00:22.387Z,1.15
2023-03-26T03:02:50.102Z,1.40
2023-03-26T03:05:18.373Z,1.50
2023-03-26T03:07:46.577Z,1.58
2023-03-26T03:10:15.342Z,1.02
2023-03-26T03:12:42.852Z,1.40
2023-03-26T03:15:09.903Z,1.60
2023-03-26T03:17:36.582Z,1.67
2023-03-26T03:20:05.008Z,1.35
2023-03-26T03:22:31.654Z,1.38
2023-03-26T03:24:59.878Z,2.38
2023-03-26T03:27:26.580Z,1.58
2023-03-26T03:29:53.680Z,1.30
2023-03-26T03:32:22.489Z,1.33
2023-03-26T03:34:52.330Z,1.65
2023-03-26T03:37:20.217Z,2.15
2023-03-26T03:39:46.879Z,1.10
2023-03-26T03:42:13.536Z,1.60
2023-03-26T03:44:40.271Z,1.17
2023-03-26T03:47:06.955Z,1.65
2023-03-26T03:49:33.669Z,1.83
2023-03-26T03:52:01.296Z,1.50
2023-03-26T03:54:28.297Z,1.98
2023-03-26T03:56:55.009Z,1.83
2023-03-26T03:59:21.696Z,1.45
2023-03-26T04:01:48.475Z,1.75
2023-03-26T04:04:15.358Z,1.85
2023-03-26T04:06:42.119Z,1.42
2023-03-26T04:09:10.300Z,1.70
2023-03-26T04:11:37.124Z,1.73
2023-03-26T04:14:03.890Z,1.80
2023-03-26T04:16:30.886Z,1.30
2023-03-26T04:18:58.217Z,1.50
2023-03-26T04:21:26.249Z,2.63
2023-03-26T04:23:54.163Z,1.50
2023-03-26T04:26:20.981Z,2.20
2023-03-26T04:28:53.209Z,2.83
2023-03-26T04:31:29.017Z,1.75
2023-03-26T04:34:01.486Z,1.60
2023-03-26T04:36:32.045Z,1.35
2023-03-26T04:39:02.575Z,2.22
2023-03-26T04:41:30.145Z,1.75
2023-03-26T04:43:56.798Z,1.70
2023-03-26T04:46:24.248Z,1.95
2023-03-26T04:48:52.313Z,1.83
2023-03-26T04:51:24.216Z,1.92
2023-03-26T04:53:59.635Z,2.30
2023-03-26T04:56:52.326Z,2.90
2023-03-26T04:59:30.208Z,2.20
2023-03-26T05:01:59.839Z,3.83
2023-03-26T05:04:29.368Z,4.50
2023-03-26T05:07:00.838Z,3.70
2023-03-26T05:09:27.874Z,2.47
2023-03-26T05:11:54.556Z,1.83
2023-03-26T05:14:21.216Z,3.65
2023-03-26T05:16:50.353Z,3.75
2023-03-26T05:19:17.128Z,3.10
2023-03-26T05:21:43.833Z,5.32
2023-03-26T05:24:10.539Z,3.95
2023-03-26T05:26:37.643Z,2.83
2023-03-26T05:29:05.154Z,2.50
2023-03-26T05:31:31.860Z,2.60
2023-03-26T05:34:00.320Z,3.47
2023-03-26T05:36:28.417Z,2.22
2023-03-26T05:38:55.368Z,3.10
2023-03-26T05:41:22.050Z,3.83
2023-03-26T05:43:48.987Z,2.85
2023-03-26T05:46:16.540Z,1.92
2023-03-26T05:48:43.245Z,1.98
2023-03-26T05:51:10.066Z,2.33
2023-03-26T05:53:36.801Z,2.13
2023-03-26T05:56:04.175Z,3.92
2023-03-26T05:58:35.704Z,3.20
2023-03-26T06:01:08.609Z,1.88
2023-03-26T06:03:38.159Z,2.10
2023-03-26T06:06:09.940Z,2.40
2023-03-26T06:08:36.642Z,2.55
2023-03-26T06:11:07.913Z,2.03
2023-03-26T06:13:34.640Z,1.70
2023-03-26T06:16:01.344Z,4.72
2023-03-26T06:18:28.051Z,3.42
2023-03-26T06:20:54.877Z,2.15
2023-03-26T06:23:23.111Z,2.42
2023-03-26T06:25:49.896Z,2.03
2023-03-26T06:28:16.615Z,1.98
2023-03-26T06:30:43.276Z,3.28
2023-03-26T06:33:10.926Z,3.00
2023-03-26T06:35:37.707Z,1.73
2023-03-26T06:38:04.768Z,1.70
2023-03-26T06:40:32.993Z,2.25
2023-03-26T06:43:10.189Z,1.90
2023-03-26T06:45:37.680Z,2.05
2023-03-26T06:48:04.885Z,2.35
2023-03-26T06:50:32.698Z,2.30
2023-03-26T06:52:59.596Z,1.70
2023-03-26T06:55:26.812Z,2.20
2023-03-26T06:57:54.885Z,2.30
2023-03-26T07:00:21.755Z,2.25
2023-03-26T07:02:48.519Z,1.80
2023-03-26T07:05:15.598Z,2.22
2023-03-26T07:07:46.215Z,2.10
2023-03-26T07:10:14.200Z,2.20
2023-03-26T07:12:42.275Z,2.63
2023-03-26T07:15:10.126Z,1.95
2023-03-26T07:17:37.192Z,2.00
2023-03-26T07:20:05.547Z,2.58
2023-03-26T07:22:32.476Z,2.65
2023-03-26T07:24:59.475Z,4.18
2023-03-26T07:27:32.115Z,2.72
2023-03-26T07:30:14.543Z,2.13
2023-03-26T07:32:59.046Z,2.05
2023-03-26T07:35:43.734Z,1.92
2023-03-26T07:38:25.699Z,2.22
2023-03-26T07:41:11.094Z,2.35
2023-03-26T07:43:46.994Z,4.15
2023-03-26T07:46:15.313Z,2.40
2023-03-26T07:48:49.970Z,2.08
2023-03-26T07:51:18.755Z,2.17
2023-03-26T07:53:45.990Z,3.53
2023-03-26T07:56:41.975Z,4.63
2023-03-26T07:59:30.912Z,1.70
2023-03-26T08:02:22.333Z,2.17
2023-03-26T08:05:10.510Z,2.28
2023-03-26T08:07:58.824Z,2.05
2023-03-26T08:10:35.414Z,2.20
2023-03-26T08:13:23.345Z,2.30
2023-03-26T08:16:08.784Z,2.63
2023-03-26T08:18:44.755Z,2.70
2023-03-26T08:21:34.753Z,3.00
2023-03-26T08:24:11.106Z,2.75
2023-03-26T08:27:12.770Z,2.80
2023-03-26T08:29:45.234Z,2.05
2023-03-26T08:32:17.462Z,3.60
2023-03-26T08:34:44.507Z,2.65
2023-03-26T08:37:11.294Z,1.55
2023-03-26T08:39:39.402Z,2.33
2023-03-26T08:42:39.201Z,2.15
2023-03-26T08:45:17.988Z,2.92
2023-03-26T08:48:07.932Z,8.90
2023-03-26T08:50:47.028Z,4.13
2023-03-26T08:53:36.719Z,3.08
2023-03-26T08:56:18.578Z,3.45
2023-03-26T08:59:22.388Z,2.97
2023-03-26T09:02:16.845Z,2.60
2023-03-26T09:05:05.047Z,3.50
2023-03-26T09:08:08.006Z,2.47
2023-03-26T09:10:43.934Z,2.30
2023-03-26T09:13:22.484Z,3.05
2023-03-26T09:16:16.894Z,3.33
2023-03-26T09:19:07.849Z,16.73
2023-03-26T09:21:58.968Z,2.33
2023-03-26T09:24:57.940Z,2.40
2023-03-26T09:27:36.383Z,2.15
2023-03-26T09:30:27.368Z,5.53
2023-03-26T09:32:56.803Z,3.15
2023-03-26T09:35:44.962Z,2.17
2023-03-26T09:38:17.504Z,2.22
2023-03-26T09:41:02.179Z,4.13
2023-03-26T09:43:48.714Z,2.95
2023-03-26T09:46:21.590Z,2.47
2023-03-26T09:49:21.427Z,1.80
2023-03-26T09:51:53.628Z,2.45
2023-03-26T09:54:20.317Z,2.40
2023-03-26T09:57:08.711Z,3.15
2023-03-26T10:00:06.997Z,2.58
2023-03-26T10:02:55.016Z,3.92
2023-03-26T10:05:35.204Z,4.45
2023-03-26T10:08:20.390Z,2.65
2023-03-26T10:11:29.055Z,3.03
2023-03-26T10:14:14.295Z,2.75
2023-03-26T10:16:58.972Z,6.85
2023-03-26T10:19:34.899Z,4.38
2023-03-26T10:22:39.422Z,2.80
2023-03-26T10:25:40.818Z,2.78
2023-03-26T10:28:21.448Z,3.72
2023-03-26T10:31:14.980Z,4.35
2023-03-26T10:34:28.516Z,4.15
2023-03-26T10:37:19.086Z,5.65
2023-03-26T10:40:05.850Z,3.28
2023-03-26T10:43:00.922Z,5.22
2023-03-26T10:45:59.762Z,4.00
2023-03-26T10:48:57.673Z,4.00
2023-03-26T10:51:51.274Z,5.70
2023-03-26T10:54:36.536Z,5.25
2023-03-26T10:57:11.589Z,4.15
2023-03-26T10:59:38.579Z,6.25
2023-03-26T11:02:41.532Z,3.33
2023-03-26T11:05:27.507Z,3.47
2023-03-26T11:08:31.736Z,7.68
2023-03-26T11:11:25.966Z,3.20
2023-03-26T11:14:33.712Z,6.90
2023-03-26T11:17:40.678Z,4.57
2023-03-26T11:20:27.367Z,3.35
2023-03-26T11:23:20.354Z,2.38
2023-03-26T11:26:07.799Z,3.72
2023-03-26T11:29:03.827Z,3.25
2023-03-26T11:32:12.636Z,11.40
2023-03-26T11:34:54.688Z,3.47
2023-03-26T11:37:32.657Z,8.93
2023-03-26T11:40:02.013Z,3.10
2023-03-26T11:42:29.771Z,13.18
2023-03-26T11:45:00.812Z,12.20
2023-03-26T11:47:35.763Z,4.60
2023-03-26T11:50:07.023Z,7.05
2023-03-26T11:52:33.729Z,7.35
2023-03-26T11:55:00.400Z,3.08
2023-03-26T11:57:33.067Z,3.67
2023-03-26T12:00:17.836Z,6.10
2023-03-26T12:02:46.202Z,5.88
2023-03-26T12:05:18.220Z,2.65
2023-03-26T12:07:53.164Z,3.25
2023-03-26T12:10:37.763Z,2.38
2023-03-26T12:13:21.185Z,2.20
2023-03-26T12:15:48.063Z,1.90
2023-03-26T12:18:24.069Z,1.80
2023-03-26T12:21:22.181Z,1.58
2023-03-26T12:23:58.767Z,3.92
2023-03-26T12:26:39.494Z,6.15
2023-03-26T12:29:12.733Z,1.60
2023-03-26T12:32:14.662Z,3.15
2023-03-26T12:34:41.690Z,2.22
2023-03-26T12:37:46.977Z,1.20
2023-03-26T12:40:30.474Z,3.10
2023-03-26T12:44:48.306Z,4.53
2023-03-26T12:47:54.604Z,2.55
2023-03-26T12:48:41.548Z,3.20
2023-03-26T12:51:20.792Z,1.60
2023-03-26T12:54:05.554Z,1.35
2023-03-26T12:56:45.380Z,1.40
2023-03-26T12:59:30.520Z,1.73
2023-03-26T13:02:09.091Z,1.40
2023-03-26T13:05:13.241Z,3.03
2023-03-26T13:07:45.549Z,1.75
2023-03-26T13:10:49.974Z,1.30
2023-03-26T13:13:45.533Z,1.90
2023-03-26T13:16:28.507Z,1.70
2023-03-26T13:18:55.455Z,1.77
2023-03-26T13:21:37.065Z,1.60
2023-03-26T13:24:29.062Z,2.22
2023-03-26T13:27:17.696Z,1.67
2023-03-26T13:30:25.534Z,2.00
2023-03-26T13:32:58.563Z,1.50
2023-03-26T13:35:33.390Z,1.58
2023-03-26T13:38:34.559Z,3.00
2023-03-26T13:41:09.948Z,2.10
2023-03-26T13:44:02.763Z,2.35
2023-03-26T13:47:01.083Z,2.03
2023-03-26T13:49:37.203Z,1.35
2023-03-26T13:52:19.635Z,1.63
2023-03-26T13:54:54.918Z,1.25
2023-03-26T13:57:29.449Z,1.43
2023-03-26T14:00:13.653Z,1.30
2023-03-26T14:02:48.519Z,0.98
2023-03-26T14:05:27.325Z,1.02
2023-03-26T14:08:25.086Z,1.67
2023-03-26T14:11:12.741Z,1.58
2023-03-26T14:14:16.575Z,3.22
2023-03-26T14:16:58.393Z,2.28
2023-03-26T14:19:55.199Z,1.40
2023-03-26T14:22:34.191Z,1.10
2023-03-26T14:25:18.666Z,1.90
2023-03-26T14:28:00.961Z,1.58
2023-03-26T14:30:49.046Z,1.00
2023-03-26T14:33:28.073Z,1.30
2023-03-26T14:36:07.896Z,1.40
2023-03-26T14:39:18.977Z,1.67
2023-03-26T14:41:58.653Z,1.27
2023-03-26T14:44:54.392Z,1.30
2023-03-26T14:47:23.597Z,1.40
2023-03-26T14:50:21.483Z,1.80
2023-03-26T14:53:01.269Z,2.13
2023-03-26T14:56:05.411Z,2.38
2023-03-26T14:58:44.103Z,3.00
2023-03-26T15:01:20.689Z,2.15
2023-03-26T15:04:11.807Z,1.90
2023-03-26T15:07:03.513Z,1.70
2023-03-26T15:09:57.789Z,2.33
2023-03-26T15:12:41.164Z,2.13
2023-03-26T15:15:34.943Z,1.10
2023-03-26T15:18:20.023Z,1.50
2023-03-26T15:21:11.358Z,0.80
2023-03-26T15:24:03.869Z,1.05
2023-03-26T15:27:12.666Z,3.40
2023-03-26T15:30:08.522Z,1.42
2023-03-26T15:32:57.020Z,0.90
2023-03-26T15:35:42.066Z,1.50
2023-03-26T15:38:14.630Z,1.42
2023-03-26T15:41:17.651Z,1.15
2023-03-26T15:44:23.618Z,1.60
2023-03-26T15:46:58.669Z,1.27
2023-03-26T15:50:03.746Z,1.05
2023-03-26T15:52:49.095Z,1.60
2023-03-26T15:55:15.710Z,1.52
2023-03-26T15:58:05.660Z,0.88
2023-03-26T16:00:36.025Z,0.85
2023-03-26T16:03:14.688Z,1.23
2023-03-26T16:06:03.687Z,1.05
2023-03-26T16:08:53.074Z,1.63
2023-03-26T16:11:53.661Z,1.77
2023-03-26T16:14:23.910Z,1.95
2023-03-26T16:16:54.151Z,2.10
2023-03-26T16:19:21.728Z,2.70
2023-03-26T16:22:01.299Z,6.70
2023-03-26T16:24:34.702Z,4.35
2023-03-26T16:27:15.555Z,5.10
2023-03-26T16:30:00.597Z,2.85
2023-03-26T16:32:41.070Z,1.88
2023-03-26T16:35:10.523Z,1.75
2023-03-26T16:37:49.909Z,1.88
2023-03-26T16:40:16.670Z,1.92
2023-03-26T16:43:02.344Z,1.95
2023-03-26T16:45:58.034Z,1.88
2023-03-26T16:48:43.293Z,3.58
2023-03-26T16:51:44.072Z,3.33
2023-03-26T16:54:29.217Z,1.73
2023-03-26T16:57:10.509Z,3.00
2023-03-26T16:59:46.396Z,3.47
2023-03-26T17:02:52.144Z,1.83
2023-03-26T17:05:37.917Z,2.17
2023-03-26T17:08:14.714Z,6.07
2023-03-26T17:10:58.715Z,6.07
2023-03-26T17:14:01.007Z,6.68
2023-03-26T17:16:33.029Z,8.55
2023-03-26T17:19:47.283Z,6.55
2023-03-26T17:22:29.681Z,4.32
2023-03-26T17:25:20.782Z,4.18
2023-03-26T17:27:56.631Z,4.07
2023-03-26T17:30:37.873Z,3.60
2023-03-26T17:33:05.863Z,3.53
2023-03-26T17:35:44.677Z,2.58
2023-03-26T17:38:38.679Z,3.85
2023-03-26T17:41:11.225Z,2.72
2023-03-26T17:43:50.864Z,3.08
2023-03-26T17:46:32.919Z,3.40
2023-03-26T17:49:12.235Z,3.22
2023-03-26T17:51:48.677Z,4.20
2023-03-26T17:54:39.275Z,11.65
2023-03-26T17:57:20.975Z,5.00
2023-03-26T17:59:49.713Z,5.57
2023-03-26T18:02:27.703Z,6.53
2023-03-26T18:04:56.384Z,7.95
2023-03-26T18:07:37.907Z,7.50
2023-03-26T18:10:33.033Z,7.95
2023-03-26T18:13:11.290Z,7.45
2023-03-26T18:15:37.880Z,7.80
2023-03-26T18:18:18.044Z,5.78
2023-03-26T18:20:49.754Z,7.55
2023-03-26T18:23:28.660Z,6.95
2023-03-26T18:25:58.058Z,7.50
2023-03-26T18:28:38.956Z,6.88
2023-03-26T18:31:22.519Z,6.13
2023-03-26T18:33:50.660Z,5.38
2023-03-26T18:36:25.732Z,5.22
2023-03-26T18:38:58.905Z,3.90
2023-03-26T18:41:39.122Z,5.25
2023-03-26T18:44:11.619Z,4.05
2023-03-26T18:46:38.830Z,3.45
2023-03-26T18:49:06.755Z,2.10
2023-03-26T18:51:38.281Z,1.88
2023-03-26T18:54:17.060Z,2.60
2023-03-26T18:56:47.411Z,1.70
2023-03-26T18:59:37.910Z,1.13
2023-03-26T19:02:13.659Z,1.55
2023-03-26T19:04:44.652Z,1.27
2023-03-26T19:07:15.679Z,1.23
2023-03-26T19:09:43.318Z,1.10
2023-03-26T19:12:25.477Z,1.00
2023-03-26T19:15:10.551Z,2.50
2023-03-26T19:17:46.348Z,1.25
2023-03-26T19:20:38.758Z,1.70
2023-03-26T19:23:05.514Z,1.60
2023-03-26T19:25:39.623Z,1.30
2023-03-26T19:28:14.002Z,1.50
2023-03-26T19:30:42.040Z,1.30
2023-03-26T19:33:33.545Z,1.70
2023-03-26T19:36:14.884Z,1.10
2023-03-26T19:38:48.923Z,1.42
2023-03-26T19:41:29.968Z,0.95
2023-03-26T19:44:00.321Z,0.90
2023-03-26T19:46:29.098Z,0.82
2023-03-26T19:48:57.539Z,1.05
2023-03-26T19:51:35.964Z,0.52
2023-03-26T19:54:19.685Z,0.95
2023-03-26T19:56:46.418Z,1.02
2023-03-26T19:59:14.179Z,0.68
2023-03-26T20:01:41.176Z,0.80
2023-03-26T20:04:11.866Z,0.60
2023-03-26T20:06:43.864Z,0.98
2023-03-26T20:09:12.882Z,1.20
2023-03-26T20:11:40.665Z,1.13
2023-03-26T20:14:15.906Z,1.30
2023-03-26T20:16:45.201Z,1.13
2023-03-26T20:19:13.780Z,1.10
2023-03-26T20:21:41.360Z,1.20
2023-03-26T20:24:13.152Z,0.85
2023-03-26T20:26:39.949Z,1.05
2023-03-26T20:29:06.740Z,0.98
2023-03-26T20:31:33.701Z,0.77
2023-03-26T20:34:00.604Z,1.30
2023-03-26T20:36:33.200Z,0.90
2023-03-26T20:39:05.603Z,1.50
2023-03-26T20:41:33.594Z,1.77
2023-03-26T20:44:00.784Z,1.30
2023-03-26T20:46:30.900Z,0.82
2023-03-26T20:48:58.899Z,1.00
2023-03-26T20:51:28.272Z,0.70
2023-03-26T20:53:55.911Z,0.90
2023-03-26T20:56:22.665Z,0.70
2023-03-26T20:58:54.737Z,0.70
2023-03-26T21:01:24.984Z,1.15
2023-03-26T21:03:51.694Z,1.10
2023-03-26T21:06:18.333Z,1.17
2023-03-26T21:08:45.357Z,1.25
2023-03-26T21:11:32.066Z,1.52
2023-03-26T21:14:08.208Z,1.23
2023-03-26T21:19:02.942Z,0.90
2023-03-26T21:22:01.052Z,1.33
2023-03-26T21:24:33.809Z,1.02
2023-03-26T21:27:26.258Z,0.65
2023-03-26T21:29:54.695Z,0.93
2023-03-26T21:32:22.560Z,1.20
2023-03-26T21:34:58.705Z,1.42
2023-03-26T21:37:26.799Z,1.10
2023-03-26T21:39:53.744Z,1.38
2023-03-26T21:42:20.789Z,1.13
2023-03-26T21:44:47.800Z,1.52
2023-03-26T21:47:14.833Z,0.93
2023-03-26T21:49:41.841Z,1.08
2023-03-26T21:52:14.804Z,1.83
2023-03-26T21:54:43.041Z,1.80
2023-03-26T21:57:22.215Z,2.00
2023-03-26T22:00:18.573Z,1.38
2023-03-26T22:03:07.179Z,1.50
2023-03-26T22:05:55.049Z,1.10
2023-03-26T22:08:36.937Z,1.35
2023-03-26T22:11:03.637Z,1.20
2023-03-26T22:13:30.975Z,1.00
2023-03-26T22:15:57.824Z,1.08
2023-03-26T22:18:26.007Z,0.52
2023-03-26T22:20:53.121Z,0.65
2023-03-26T22:23:20.003Z,0.80
2023-03-26T22:25:46.854Z,0.60
2023-03-26T22:28:13.845Z,0.90
2023-03-26T22:30:40.804Z,1.73
2023-03-26T22:33:11.890Z,0.90
2023-03-26T22:35:41.042Z,0.90
2023-03-26T22:38:07.754Z,1.00
2023-03-26T22:40:34.796Z,1.38
2023-03-26T22:43:01.644Z,0.95
2023-03-26T22:45:28.333Z,1.25
2023-03-26T22:48:03.191Z,0.98
2023-03-26T22:50:31.124Z,1.00
2023-03-26T22:52:57.881Z,1.17
2023-03-26T22:55:28.726Z,1.27
2023-03-26T22:57:56.967Z,1.48
2023-03-26T23:00:23.659Z,2.13
2023-03-26T23:02:50.366Z,1.52
2023-03-26T23:05:17.594Z,1.15
2023-03-26T23:07:45.951Z,1.33
2023-03-26T23:10:13.191Z,1.25
2023-03-26T23:12:41.196Z,1.77
2023-03-26T23:15:09.742Z,1.63
2023-03-26T23:17:37.896Z,1.45
2023-03-26T23:20:12.076Z,1.58
2023-03-26T23:22:38.848Z,1.63
2023-03-26T23:25:06.387Z,2.00
2023-03-26T23:27:33.919Z,1.48
2023-03-26T23:30:01.229Z,1.10
2023-03-26T23:32:28.159Z,1.20
2023-03-26T23:34:57.900Z,1.08
2023-03-26T23:37:24.619Z,0.90
2023-03-26T23:39:52.230Z,1.00
2023-03-26T23:42:28.671Z,0.90
2023-03-26T23:44:56.962Z,1.02
2023-03-26T23:47:24.146Z,1.08
2023-03-26T23:49:51.191Z,0.80
2023-03-26T23:52:18.237Z,0.88
2023-03-26T23:54:45.567Z,0.70
2023-03-26T23:57:12.354Z,0.70
2023-03-26T23:59:41.318Z,0.50
